Home

Weather

KSLC Current Conditions

KSLC 211954Z 28006G14KT 10SM FEW003 FEW075 19/M02 A3018 RMK AO2 SLP190 FU FEW003 FU W AND VC NW T01891022

KSLC Aviation Forecast

TAF KSLC 211720Z 2118/2224 32004KT P6SM FEW080 FM211900 32007KT P6SM FEW080 FM220300 15006KT P6SM SKC


66° F
Clear
Clear

Clear
Saturday
Clear
High 68°/Low 48°
0%
Clear
Sunday
Clear
High 77°/Low 53°
0%
Chance of Rain
Monday
Chance of Rain
High 66°/Low 43°
40%
Clear
Tuesday
Clear
High 69°/Low 45°
0%
Partly Cloudy
Wednesday
Partly Cloudy
High 74°/Low 52°
0%
Clear
Thursday
Clear
High 77°/Low 52°
0%